Time;durP1;ratioP1;P1;durP2;ratioP2;P2;SDS_P1;SDS_P2;PMS_P1;PMS_P2;Temp;Humidity;BMP_temperature;BMP_pressure;BME280_temperature;BME280_humidity;BME280_pressure;Samples;Min_cycle;Max_cycle;Signal;HPM_P1;HPM_P2
2022/12/21 00:01:26;;;;;;;23.73;15.47;;;10.10;99.90;;;;;;5078662;28;20265;-64
2022/12/21 00:03:55;;;;;;;25.13;15.97;;;10.00;99.90;;;;;;5079357;28;20698;-63
2022/12/21 00:06:23;;;;;;;28.40;15.23;;;9.90;99.90;;;;;;5079541;28;20245;-63
2022/12/21 00:08:53;;;;;;;25.43;15.33;;;9.90;99.90;;;;;;5059991;28;20205;-66
2022/12/21 00:11:23;;;;;;;27.53;15.93;;;9.70;99.90;;;;;;5078055;28;20227;-64
2022/12/21 00:13:51;;;;;;;27.80;15.80;;;9.70;99.90;;;;;;5076755;28;20344;-63
2022/12/21 00:16:21;;;;;;;27.03;15.50;;;9.80;99.90;;;;;;5075824;28;20609;-65
2022/12/21 00:18:48;;;;;;;26.23;15.13;;;9.90;99.90;;;;;;5079475;28;20207;-64
2022/12/21 00:21:21;;;;;;;26.87;15.00;;;9.80;99.90;;;;;;5080012;28;20634;-65
2022/12/21 00:23:50;;;;;;;27.87;16.20;;;9.70;99.90;;;;;;5078038;28;20278;-64
2022/12/21 00:26:20;;;;;;;25.77;15.33;;;9.80;99.90;;;;;;5061068;28;20211;-65
2022/12/21 00:28:49;;;;;;;22.40;14.97;;;9.90;99.90;;;;;;5075964;28;20242;-65
2022/12/21 00:31:19;;;;;;;26.87;15.40;;;9.90;99.90;;;;;;5061458;28;20235;-64
2022/12/21 00:33:46;;;;;;;26.87;16.77;;;10.00;99.90;;;;;;5078225;28;20206;-64
2022/12/21 00:36:15;;;;;;;29.20;15.40;;;10.00;99.90;;;;;;5062943;28;20212;-67
2022/12/21 00:38:42;;;;;;;28.00;15.60;;;9.90;99.90;;;;;;5076814;28;20197;-64
2022/12/21 00:41:12;;;;;;;25.10;15.97;;;9.90;99.90;;;;;;5078121;28;20213;-64
2022/12/21 00:43:40;;;;;;;24.83;14.30;;;9.90;99.90;;;;;;5076419;28;20208;-64
2022/12/21 00:46:14;;;;;;;24.43;14.67;;;9.90;99.90;;;;;;5074174;28;20221;-64
2022/12/21 00:48:40;;;;;;;31.50;16.40;;;9.90;99.90;;;;;;5075760;28;20199;-63
2022/12/21 00:51:10;;;;;;;28.13;14.70;;;9.90;99.90;;;;;;5079506;28;20202;-64
2022/12/21 00:53:37;;;;;;;23.77;15.20;;;9.90;99.90;;;;;;5081094;28;20198;-64
2022/12/21 00:56:05;;;;;;;31.07;16.70;;;9.90;99.90;;;;;;5082376;28;21508;-65
2022/12/21 00:58:33;;;;;;;28.40;16.10;;;10.00;99.90;;;;;;5082457;28;20221;-64
2022/12/21 01:01:05;;;;;;;28.70;15.77;;;9.90;99.90;;;;;;5083169;28;20223;-64
2022/12/21 01:03:32;;;;;;;27.10;14.87;;;10.00;99.90;;;;;;5081520;28;20298;-63
2022/12/21 01:05:59;;;;;;;30.10;16.00;;;9.90;99.90;;;;;;5082023;28;20223;-64
2022/12/21 01:08:26;;;;;;;26.27;15.40;;;9.90;99.90;;;;;;5081450;28;20222;-64
2022/12/21 01:11:02;;;;;;;26.80;15.20;;;9.80;99.90;;;;;;5082553;28;20303;-64
2022/12/21 01:13:31;;;;;;;27.47;16.23;;;9.80;99.90;;;;;;5080051;28;20748;-64
2022/12/21 01:15:58;;;;;;;32.20;17.30;;;9.90;99.90;;;;;;5080142;28;20214;-65
2022/12/21 01:18:25;;;;;;;26.67;14.67;;;9.80;99.90;;;;;;5080182;28;20199;-65
2022/12/21 01:20:54;;;;;;;24.10;14.00;;;9.70;99.90;;;;;;5081134;28;20203;-67
2022/12/21 01:23:23;;;;;;;24.53;15.17;;;9.60;99.90;;;;;;5081765;28;20636;-64
2022/12/21 01:25:50;;;;;;;29.13;17.13;;;9.50;99.90;;;;;;5081123;28;20522;-64
2022/12/21 01:28:17;;;;;;;31.33;17.93;;;9.60;99.90;;;;;;5078564;28;20761;-65
2022/12/21 01:30:44;;;;;;;32.53;18.57;;;9.70;99.90;;;;;;5081264;28;20286;-64
2022/12/21 01:33:18;;;;;;;32.03;17.30;;;9.70;99.90;;;;;;5080724;28;20612;-64
2022/12/21 01:35:45;;;;;;;28.67;16.17;;;9.70;99.90;;;;;;5082262;28;20705;-64
2022/12/21 01:38:13;;;;;;;29.47;16.20;;;9.60;99.90;;;;;;5079971;28;20199;-65
2022/12/21 01:40:40;;;;;;;31.20;16.97;;;9.60;99.90;;;;;;5080614;28;20285;-64
2022/12/21 01:43:38;;;;;;;30.67;16.43;;;9.70;99.90;;;;;;5078304;28;20714;-65
2022/12/21 01:46:07;;;;;;;27.97;15.90;;;9.70;99.90;;;;;;5079278;28;20357;-66
2022/12/21 01:48:41;;;;;;;28.07;16.10;;;9.60;99.90;;;;;;5079397;28;20701;-65
2022/12/21 01:51:10;;;;;;;27.57;16.00;;;9.50;99.90;;;;;;5082463;28;20306;-64
2022/12/21 01:53:42;;;;;;;27.77;15.93;;;9.70;99.90;;;;;;5080851;28;20211;-64
2022/12/21 01:56:12;;;;;;;24.97;16.03;;;9.70;99.90;;;;;;5081554;28;20570;-64
2022/12/21 01:58:40;;;;;;;26.70;15.90;;;9.70;99.90;;;;;;5075971;28;20238;-64
2022/12/21 02:01:07;;;;;;;31.73;16.00;;;9.70;99.90;;;;;;5080414;28;20286;-67
2022/12/21 02:03:39;;;;;;;26.77;15.17;;;9.70;99.90;;;;;;5078401;28;20214;-63
2022/12/21 02:06:38;;;;;;;33.80;16.83;;;9.80;99.90;;;;;;5080557;28;20217;-64
2022/12/21 02:09:07;;;;;;;31.23;16.73;;;9.80;99.90;;;;;;5079174;28;20548;-64
2022/12/21 02:11:34;;;;;;;32.60;18.13;;;9.90;99.90;;;;;;5081313;28;20280;-63
2022/12/21 02:14:02;;;;;;;28.13;16.30;;;9.80;99.90;;;;;;5078060;28;20240;-64
2022/12/21 02:16:52;;;;;;;31.77;18.03;;;9.80;99.90;;;;;;5082723;28;20621;-64
2022/12/21 02:19:31;;;;;;;28.17;15.77;;;9.80;99.90;;;;;;5079080;28;20213;-64
2022/12/21 02:22:07;;;;;;;30.37;16.57;;;9.80;99.90;;;;;;5080173;28;20254;-63
2022/12/21 02:24:47;;;;;;;34.97;18.27;;;9.80;99.90;;;;;;5081218;28;20198;-64
2022/12/21 02:27:26;;;;;;;33.37;17.80;;;9.70;99.90;;;;;;5077089;28;20250;-65
2022/12/21 02:30:05;;;;;;;32.40;17.53;;;9.70;99.90;;;;;;5079366;28;20215;-64
2022/12/21 02:32:50;;;;;;;30.97;18.33;;;9.60;99.90;;;;;;5080039;28;20285;-64
2022/12/21 02:35:26;;;;;;;35.00;17.93;;;9.60;99.90;;;;;;5080056;28;20198;-63
2022/12/21 02:38:15;;;;;;;31.33;17.87;;;9.70;99.90;;;;;;5076031;28;20210;-64
2022/12/21 02:41:21;;;;;;;31.53;17.63;;;9.70;99.90;;;;;;5079750;28;20249;-64
2022/12/21 02:44:15;;;;;;;29.93;17.40;;;9.60;99.90;;;;;;5060804;28;20303;-64
2022/12/21 02:47:00;;;;;;;32.37;17.77;;;9.50;99.90;;;;;;5079202;28;20306;-64
2022/12/21 02:49:37;;;;;;;37.23;18.70;;;9.50;99.90;;;;;;5079869;28;20194;-65
2022/12/21 02:52:09;;;;;;;32.93;18.37;;;9.40;99.90;;;;;;5079832;28;20212;-64
2022/12/21 02:54:40;;;;;;;30.97;17.50;;;9.40;99.90;;;;;;5080078;28;20544;-65
2022/12/21 02:57:07;;;;;;;32.47;16.07;;;9.40;99.90;;;;;;5077819;28;20210;-66
2022/12/21 02:59:49;;;;;;;32.37;17.57;;;9.40;99.90;;;;;;5066165;28;20221;-64
2022/12/21 03:02:34;;;;;;;31.50;18.07;;;9.40;99.90;;;;;;5061008;28;20203;-64
2022/12/21 03:05:47;;;;;;;39.60;19.13;;;9.50;99.90;;;;;;5079906;28;20220;-64
2022/12/21 03:08:46;;;;;;;36.07;18.80;;;9.70;99.90;;;;;;5030491;28;20345;-65
2022/12/21 03:11:13;;;;;;;36.97;19.53;;;9.60;99.90;;;;;;5077780;28;20377;-63
2022/12/21 03:13:40;;;;;;;34.03;19.37;;;9.50;99.90;;;;;;5075793;28;20293;-65
2022/12/21 03:16:29;;;;;;;33.43;18.10;;;9.40;99.90;;;;;;5077832;28;20745;-64
2022/12/21 03:19:11;;;;;;;34.73;18.83;;;9.50;99.90;;;;;;5078128;28;20203;-64
2022/12/21 03:21:46;;;;;;;37.43;19.63;;;9.30;99.90;;;;;;5080400;28;20298;-64
2022/12/21 03:24:25;;;;;;;40.37;19.70;;;9.20;99.90;;;;;;5078690;28;20287;-64
2022/12/21 03:27:19;;;;;;;34.97;19.80;;;9.30;99.90;;;;;;5079455;28;20218;-65
2022/12/21 03:29:53;;;;;;;36.83;19.53;;;9.50;99.90;;;;;;5077751;28;20196;-64
2022/12/21 03:32:30;;;;;;;39.33;20.30;;;9.60;99.90;;;;;;5077588;28;20198;-65
2022/12/21 03:34:58;;;;;;;39.30;19.40;;;9.60;99.90;;;;;;5079272;28;20282;-64
2022/12/21 03:37:30;;;;;;;39.63;20.83;;;9.70;99.90;;;;;;5078855;28;20215;-65
2022/12/21 03:40:11;;;;;;;37.53;19.57;;;9.60;99.90;;;;;;5078112;28;20216;-64
2022/12/21 03:42:44;;;;;;;42.43;18.13;;;9.60;99.90;;;;;;5058295;28;20206;-64
2022/12/21 03:45:17;;;;;;;37.57;19.27;;;9.40;99.90;;;;;;5064720;28;20237;-65
2022/12/21 03:48:12;;;;;;;33.10;17.93;;;9.40;99.90;;;;;;5076540;28;20215;-64
2022/12/21 03:50:44;;;;;;;41.57;22.37;;;9.50;99.90;;;;;;5078869;28;20288;-65
2022/12/21 03:53:46;;;;;;;40.00;20.47;;;9.50;99.90;;;;;;5076848;28;20203;-65
2022/12/21 03:56:19;;;;;;;36.67;19.17;;;9.40;99.90;;;;;;5077077;28;20209;-65
2022/12/21 03:58:46;;;;;;;34.43;19.27;;;9.40;99.90;;;;;;5069452;28;20617;-64
2022/12/21 04:01:34;;;;;;;36.77;20.23;;;9.40;99.90;;;;;;5080687;28;20203;-64
2022/12/21 04:04:11;;;;;;;42.00;21.47;;;9.50;99.90;;;;;;5076890;28;20228;-63
2022/12/21 04:06:40;;;;;;;35.63;19.87;;;9.40;99.90;;;;;;5077540;28;20220;-65
2022/12/21 04:09:07;;;;;;;42.63;21.80;;;9.30;99.90;;;;;;5078489;28;20202;-64
2022/12/21 04:14:21;;;;;;;37.63;21.53;;;9.20;99.90;;;;;;5075485;28;20638;-64
2022/12/21 04:16:48;;;;;;;41.23;22.87;;;9.30;99.90;;;;;;5064472;28;20210;-64
2022/12/21 04:22:04;;;;;;;43.27;21.77;;;9.20;99.90;;;;;;5079652;28;20643;-67
2022/12/21 04:30:03;;;;;;;60.27;25.97;;;9.10;99.90;;;;;;5079808;28;20673;-64
2022/12/21 04:32:30;;;;;;;58.37;26.93;;;9.10;99.90;;;;;;5077570;28;20248;-64
2022/12/21 04:34:57;;;;;;;60.07;25.90;;;9.10;99.90;;;;;;5078858;28;20644;-64
2022/12/21 04:37:35;;;;;;;60.33;26.23;;;9.10;99.90;;;;;;5078321;28;20205;-64
2022/12/21 04:40:03;;;;;;;60.60;27.30;;;9.10;99.90;;;;;;5078056;28;20260;-65
2022/12/21 04:42:30;;;;;;;68.77;28.17;;;9.20;99.90;;;;;;5077851;28;20334;-64
2022/12/21 04:44:56;;;;;;;64.50;28.23;;;9.20;99.90;;;;;;5076678;28;20292;-65
2022/12/21 04:47:23;;;;;;;59.07;26.83;;;9.20;99.90;;;;;;5077527;28;20245;-64
2022/12/21 04:49:50;;;;;;;64.47;28.63;;;9.20;99.90;;;;;;5060259;28;20202;-64
2022/12/21 04:52:17;;;;;;;57.27;26.67;;;9.30;99.90;;;;;;5077859;28;20303;-64
2022/12/21 04:54:44;;;;;;;62.03;27.00;;;9.10;99.90;;;;;;5079318;28;20197;-64
2022/12/21 04:57:11;;;;;;;55.97;27.43;;;9.10;99.90;;;;;;5077735;28;20287;-64
2022/12/21 04:59:37;;;;;;;53.43;26.63;;;9.10;99.90;;;;;;5076203;28;20673;-64
2022/12/21 05:02:04;;;;;;;52.70;25.67;;;9.20;99.90;;;;;;5078545;28;20567;-64
2022/12/21 05:04:31;;;;;;;59.23;25.63;;;9.10;99.90;;;;;;5076942;28;20201;-65
2022/12/21 05:06:58;;;;;;;50.50;23.83;;;9.10;99.90;;;;;;5080924;28;20763;-65
2022/12/21 05:09:25;;;;;;;54.50;25.23;;;9.10;99.90;;;;;;5079524;28;20555;-65
2022/12/21 05:11:52;;;;;;;45.87;24.20;;;9.10;99.90;;;;;;5066671;28;20222;-66
2022/12/21 05:14:19;;;;;;;50.03;24.53;;;9.10;99.90;;;;;;5077204;28;20201;-64
2022/12/21 05:16:46;;;;;;;42.47;23.10;;;9.10;99.90;;;;;;5076494;28;20250;-64
2022/12/21 05:19:13;;;;;;;47.23;24.83;;;9.20;99.90;;;;;;5076069;28;20658;-64
2022/12/21 05:21:40;;;;;;;42.70;23.17;;;9.40;99.90;;;;;;5077305;28;20207;-67
2022/12/21 05:24:07;;;;;;;48.07;23.20;;;9.40;99.90;;;;;;5077904;28;20802;-65
2022/12/21 05:26:35;;;;;;;41.57;23.80;;;9.40;99.90;;;;;;5080545;28;20609;-64
2022/12/21 05:29:02;;;;;;;45.03;21.30;;;9.40;99.90;;;;;;5077830;28;20746;-65
2022/12/21 05:31:29;;;;;;;42.30;22.40;;;9.30;99.90;;;;;;5069262;28;20871;-65
2022/12/21 05:33:56;;;;;;;37.63;21.20;;;9.30;99.90;;;;;;5076667;28;20976;-65
2022/12/21 05:36:24;;;;;;;37.37;20.43;;;9.20;99.90;;;;;;5078291;28;21780;-67
2022/12/21 05:38:51;;;;;;;40.03;21.77;;;9.20;99.90;;;;;;5069048;28;20255;-64
2022/12/21 05:41:18;;;;;;;35.87;21.53;;;9.30;99.90;;;;;;5082433;28;20708;-65
2022/12/21 05:43:45;;;;;;;38.80;20.27;;;9.30;99.90;;;;;;5077279;28;20209;-64
2022/12/21 05:46:12;;;;;;;36.77;19.77;;;9.20;99.90;;;;;;5063019;28;20294;-64
2022/12/21 05:48:50;;;;;;;34.93;20.07;;;9.20;99.90;;;;;;5080493;28;20215;-65
2022/12/21 05:51:17;;;;;;;35.57;20.07;;;9.10;99.90;;;;;;5081984;28;20957;-64
2022/12/21 05:53:45;;;;;;;34.53;19.60;;;9.20;99.90;;;;;;5077045;28;20621;-64
2022/12/21 05:56:12;;;;;;;36.90;19.60;;;9.20;99.90;;;;;;5053294;28;20254;-65
2022/12/21 05:58:40;;;;;;;35.00;19.53;;;9.10;99.90;;;;;;5081906;28;20208;-65
2022/12/21 06:01:08;;;;;;;37.23;19.17;;;9.00;99.90;;;;;;5079463;28;20205;-64
2022/12/21 06:03:36;;;;;;;31.00;19.33;;;8.90;99.90;;;;;;5082304;28;20207;-64
2022/12/21 06:06:05;;;;;;;30.60;18.53;;;8.90;99.90;;;;;;5086614;28;20210;-64
2022/12/21 06:08:32;;;;;;;35.97;18.50;;;8.90;99.90;;;;;;5079612;28;20217;-64
2022/12/21 06:11:17;;;;;;;29.63;17.57;;;8.90;99.90;;;;;;5081982;28;20350;-64
2022/12/21 06:13:44;;;;;;;30.63;17.97;;;8.90;99.90;;;;;;5078452;28;20281;-63
2022/12/21 06:16:19;;;;;;;33.07;17.30;;;9.10;99.90;;;;;;5080379;28;20636;-67
2022/12/21 06:18:46;;;;;;;29.63;15.97;;;9.00;99.90;;;;;;5084766;28;20203;-65
2022/12/21 06:21:15;;;;;;;26.03;15.60;;;8.90;99.90;;;;;;5081069;28;20254;-65
2022/12/21 06:23:42;;;;;;;32.70;17.27;;;8.80;99.90;;;;;;5080269;28;20197;-64
2022/12/21 06:26:15;;;;;;;27.10;15.30;;;8.90;99.90;;;;;;5081028;28;20221;-64
2022/12/21 06:28:46;;;;;;;25.30;14.83;;;9.00;99.90;;;;;;5077768;28;20214;-64
2022/12/21 06:31:13;;;;;;;26.23;14.83;;;9.00;99.90;;;;;;5081418;28;20308;-64
2022/12/21 06:33:41;;;;;;;20.90;13.60;;;8.90;99.90;;;;;;5080651;28;20195;-64
2022/12/21 06:36:09;;;;;;;24.60;14.57;;;8.80;99.90;;;;;;5080029;28;20632;-64
2022/12/21 06:38:36;;;;;;;24.60;14.07;;;8.80;99.90;;;;;;5079146;28;20286;-64
2022/12/21 06:41:10;;;;;;;24.00;14.37;;;8.70;99.90;;;;;;5079383;28;20280;-64
2022/12/21 06:43:39;;;;;;;23.07;12.67;;;8.80;99.90;;;;;;5079285;28;20193;-64
2022/12/21 06:46:11;;;;;;;22.30;12.80;;;8.80;99.90;;;;;;5077784;28;20201;-64
2022/12/21 06:48:39;;;;;;;21.13;12.43;;;8.90;99.90;;;;;;5078025;28;20217;-64
2022/12/21 06:51:10;;;;;;;21.73;13.30;;;8.90;99.90;;;;;;5081207;28;20226;-64
2022/12/21 06:53:38;;;;;;;22.60;13.07;;;9.00;99.90;;;;;;5078720;28;20208;-64
2022/12/21 06:56:11;;;;;;;19.27;12.10;;;9.00;99.90;;;;;;5080745;28;20260;-65
2022/12/21 06:58:47;;;;;;;20.07;12.57;;;8.90;99.90;;;;;;5078839;28;20202;-64
2022/12/21 07:01:20;;;;;;;22.00;12.03;;;8.90;99.90;;;;;;5067829;28;20648;-64
2022/12/21 07:03:47;;;;;;;19.13;11.20;;;8.80;99.90;;;;;;5081052;28;20198;-64
2022/12/21 07:06:17;;;;;;;16.87;11.60;;;8.80;99.90;;;;;;5080298;28;20254;-64
2022/12/21 07:08:44;;;;;;;20.57;11.37;;;8.70;99.90;;;;;;5079788;28;20223;-67
2022/12/21 07:11:13;;;;;;;21.13;10.07;;;8.70;99.90;;;;;;5077915;28;20243;-67
2022/12/21 07:13:42;;;;;;;16.77;10.07;;;8.70;99.90;;;;;;5077318;28;20223;-65
2022/12/21 07:16:10;;;;;;;15.97;9.13;;;8.60;99.90;;;;;;5077441;28;20238;-65
2022/12/21 07:18:38;;;;;;;18.43;9.80;;;8.60;99.90;;;;;;5077622;28;20665;-64
2022/12/21 07:21:07;;;;;;;13.83;9.00;;;8.80;99.90;;;;;;5078345;28;20201;-65
2022/12/21 07:23:36;;;;;;;16.87;9.20;;;8.80;99.90;;;;;;5080042;28;20208;-64
2022/12/21 07:26:14;;;;;;;14.10;8.67;;;8.70;99.90;;;;;;4723584;28;10000022;-67
2022/12/21 07:28:43;;;;;;;17.53;9.37;;;8.40;99.90;;;;;;5051540;28;20341;-64
2022/12/21 07:31:13;;;;;;;15.93;8.67;;;8.40;99.90;;;;;;5076547;28;20198;-64
2022/12/21 07:33:43;;;;;;;16.27;8.17;;;8.40;99.90;;;;;;5077672;28;20217;-64
2022/12/21 07:36:10;;;;;;;13.77;8.80;;;8.50;99.90;;;;;;5079386;28;20459;-65
2022/12/21 07:38:38;;;;;;;17.63;7.90;;;8.60;99.90;;;;;;5078700;28;20674;-65
2022/12/21 07:41:08;;;;;;;17.30;8.50;;;8.50;99.90;;;;;;5079291;28;20231;-65
2022/12/21 07:43:35;;;;;;;16.33;7.80;;;8.50;99.90;;;;;;5071358;28;20212;-65
2022/12/21 07:46:03;;;;;;;15.77;7.90;;;8.50;99.90;;;;;;5077066;28;20242;-64
2022/12/21 07:48:30;;;;;;;14.10;7.83;;;8.50;99.90;;;;;;5070322;28;20683;-65
2022/12/21 07:50:57;;;;;;;14.90;8.03;;;8.50;99.90;;;;;;5077995;28;20645;-64
2022/12/21 07:53:25;;;;;;;16.80;7.80;;;8.40;99.90;;;;;;5072679;28;20240;-68
2022/12/21 07:55:52;;;;;;;13.37;7.77;;;8.30;99.90;;;;;;5058043;28;20204;-65
2022/12/21 07:58:19;;;;;;;15.83;7.43;;;8.40;99.90;;;;;;5075810;28;20268;-64
2022/12/21 08:00:46;;;;;;;12.20;7.50;;;8.30;99.90;;;;;;5053654;28;20238;-63
2022/12/21 08:03:13;;;;;;;15.27;7.30;;;8.30;99.90;;;;;;5077908;28;20670;-64
2022/12/21 08:05:40;;;;;;;15.87;7.37;;;8.20;99.90;;;;;;5075635;28;20205;-64
2022/12/21 08:08:07;;;;;;;12.70;7.27;;;8.10;99.90;;;;;;5071246;28;20697;-64
2022/12/21 08:10:33;;;;;;;12.67;6.80;;;8.20;99.90;;;;;;5073411;28;20249;-63
2022/12/21 08:13:00;;;;;;;12.27;7.00;;;8.20;99.90;;;;;;5078343;28;20498;-65
2022/12/21 08:15:27;;;;;;;14.93;7.73;;;8.20;99.90;;;;;;5074561;28;20236;-64
2022/12/21 08:17:54;;;;;;;23.73;7.30;;;8.20;99.90;;;;;;5059824;28;20690;-64
2022/12/21 08:20:21;;;;;;;13.73;6.80;;;8.10;99.90;;;;;;5071330;28;20290;-63
2022/12/21 08:22:49;;;;;;;15.37;8.10;;;8.10;99.90;;;;;;5076326;28;20336;-65
2022/12/21 08:25:16;;;;;;;14.27;7.43;;;8.20;99.90;;;;;;5060289;28;20306;-64
2022/12/21 08:27:43;;;;;;;15.90;7.10;;;8.20;99.90;;;;;;5071808;28;20214;-67
2022/12/21 08:30:10;;;;;;;12.70;7.63;;;8.20;99.90;;;;;;5043151;28;20199;-65
2022/12/21 08:32:38;;;;;;;17.37;7.80;;;8.20;99.90;;;;;;5075865;28;20198;-66
2022/12/21 08:35:05;;;;;;;12.17;6.80;;;8.30;99.90;;;;;;5055881;28;20613;-63
2022/12/21 08:37:32;;;;;;;8.87;5.90;;;8.30;99.90;;;;;;5058019;28;20188;-63
2022/12/21 08:39:59;;;;;;;12.23;7.10;;;8.40;99.90;;;;;;5056525;28;20194;-63
2022/12/21 08:42:25;;;;;;;12.87;6.63;;;8.40;99.90;;;;;;5076213;28;20204;-63
2022/12/21 08:44:59;;;;;;;13.57;7.07;;;8.40;99.90;;;;;;5060570;28;20236;-64
2022/12/21 08:47:28;;;;;;;16.53;7.80;;;8.30;99.90;;;;;;5062013;28;20196;-63
2022/12/21 08:49:55;;;;;;;14.17;7.67;;;8.30;99.90;;;;;;5074692;28;20640;-66
2022/12/21 08:52:21;;;;;;;17.40;7.77;;;8.30;99.90;;;;;;5078061;28;20202;-66
2022/12/21 08:54:48;;;;;;;13.73;8.13;;;8.30;99.90;;;;;;5076018;28;20670;-66
2022/12/21 08:57:15;;;;;;;14.63;8.40;;;8.40;99.90;;;;;;5064018;28;20204;-65
2022/12/21 08:59:42;;;;;;;18.23;8.87;;;8.40;99.90;;;;;;5075897;28;20211;-63
2022/12/21 09:02:14;;;;;;;14.80;7.67;;;8.50;99.90;;;;;;5074095;28;20205;-63
2022/12/21 09:04:42;;;;;;;17.40;8.23;;;8.50;99.90;;;;;;5079657;28;20208;-62
2022/12/21 09:07:09;;;;;;;13.97;7.80;;;8.50;99.90;;;;;;5077063;28;20608;-61
2022/12/21 09:09:36;;;;;;;19.87;8.27;;;8.30;99.90;;;;;;5075767;28;20673;-65
2022/12/21 09:12:02;;;;;;;14.87;8.47;;;8.50;99.90;;;;;;5076539;28;20221;-69
2022/12/21 09:14:29;;;;;;;13.57;8.30;;;8.40;99.90;;;;;;5080138;28;20192;-64
2022/12/21 09:16:56;;;;;;;19.53;10.50;;;8.40;99.90;;;;;;5077836;28;20718;-64
2022/12/21 09:19:24;;;;;;;19.33;9.00;;;8.40;99.90;;;;;;5061766;28;20288;-63
2022/12/21 09:21:51;;;;;;;15.17;9.50;;;8.50;99.90;;;;;;5076105;28;20658;-63
2022/12/21 09:24:18;;;;;;;18.27;10.40;;;8.50;99.90;;;;;;5079586;28;20227;-63
2022/12/21 09:26:45;;;;;;;22.40;11.20;;;8.50;99.90;;;;;;5057076;28;20769;-63
2022/12/21 09:29:12;;;;;;;20.80;10.23;;;8.50;99.90;;;;;;5076269;28;20301;-64
2022/12/21 09:31:39;;;;;;;21.30;11.33;;;8.40;99.90;;;;;;5077978;28;20205;-61
2022/12/21 09:34:05;;;;;;;25.77;12.80;;;8.50;99.90;;;;;;5078645;28;20223;-63
2022/12/21 09:36:32;;;;;;;25.57;13.43;;;8.50;99.90;;;;;;5076691;28;20188;-64
2022/12/21 09:39:19;;;;;;;29.43;13.90;;;8.50;99.90;;;;;;5067665;28;20212;-62
2022/12/21 09:42:06;;;;;;;26.67;15.23;;;8.80;99.90;;;;;;5075353;28;20199;-65
2022/12/21 09:44:49;;;;;;;35.70;17.00;;;8.60;99.90;;;;;;5076645;28;20205;-62
2022/12/21 09:47:25;;;;;;;32.13;16.37;;;8.50;99.90;;;;;;5076716;28;20209;-63
2022/12/21 09:49:59;;;;;;;29.73;17.33;;;8.60;99.90;;;;;;5079947;28;20229;-64
2022/12/21 09:52:32;;;;;;;29.17;16.70;;;8.60;99.90;;;;;;5062599;28;20715;-62
2022/12/21 09:55:05;;;;;;;32.50;16.70;;;8.70;99.90;;;;;;5081190;28;20301;-61
2022/12/21 09:57:36;;;;;;;32.70;17.73;;;8.60;99.90;;;;;;5057864;28;20211;-62
2022/12/21 10:00:36;;;;;;;32.50;17.57;;;8.60;99.90;;;;;;5078688;28;20929;-61
2022/12/21 10:03:41;;;;;;;28.53;16.63;;;8.60;99.90;;;;;;5052888;28;20723;-61
2022/12/21 10:06:17;;;;;;;27.33;15.33;;;8.60;99.90;;;;;;5076781;28;20203;-61
2022/12/21 10:08:52;;;;;;;32.80;16.13;;;8.60;99.90;;;;;;5072026;28;20209;-61
2022/12/21 10:11:37;;;;;;;29.83;14.47;;;8.60;99.90;;;;;;5080016;28;20230;-60
2022/12/21 10:14:23;;;;;;;28.67;15.13;;;8.60;99.90;;;;;;5075657;28;20673;-61
2022/12/21 10:17:13;;;;;;;27.13;15.07;;;8.60;99.90;;;;;;5072601;28;20252;-61
2022/12/21 10:20:34;;;;;;;25.67;12.93;;;8.70;99.90;;;;;;5073725;28;20231;-61
2022/12/21 10:23:04;;;;;;;24.20;12.20;;;8.60;99.90;;;;;;5072658;28;20233;-61
2022/12/21 10:25:56;;;;;;;27.17;13.83;;;8.60;99.90;;;;;;5074333;28;20245;-62
2022/12/21 10:28:45;;;;;;;25.10;12.03;;;8.60;99.90;;;;;;5056004;28;20225;-61
2022/12/21 10:31:27;;;;;;;23.73;12.70;;;8.70;99.90;;;;;;5076974;28;20291;-60
2022/12/21 10:33:56;;;;;;;20.63;10.83;;;8.70;99.90;;;;;;5062223;28;20195;-61
2022/12/21 10:36:34;;;;;;;21.60;11.53;;;8.70;99.90;;;;;;5045237;28;20269;-61
2022/12/21 10:39:02;;;;;;;18.87;10.73;;;8.70;99.90;;;;;;5073088;28;20206;-62
2022/12/21 10:41:38;;;;;;;26.90;10.83;;;8.80;99.90;;;;;;5074487;28;20203;-62
2022/12/21 10:44:05;;;;;;;23.13;10.53;;;8.70;99.90;;;;;;5055468;28;20545;-63
2022/12/21 10:46:34;;;;;;;19.53;10.63;;;8.80;99.90;;;;;;5071345;28;20221;-61
2022/12/21 10:49:28;;;;;;;17.13;9.40;;;8.90;99.90;;;;;;5069156;28;20558;-61
2022/12/21 10:51:55;;;;;;;18.07;9.10;;;8.80;99.90;;;;;;5079844;28;20661;-62
2022/12/21 10:54:27;;;;;;;17.73;9.60;;;8.90;99.90;;;;;;5075518;28;20867;-64
2022/12/21 10:56:58;;;;;;;17.63;9.90;;;8.90;99.90;;;;;;5073476;28;20647;-61
2022/12/21 10:59:31;;;;;;;15.83;8.53;;;8.90;99.90;;;;;;5075770;28;20294;-62
2022/12/21 11:01:58;;;;;;;19.30;9.40;;;8.90;99.90;;;;;;5073824;28;20200;-61
2022/12/21 11:04:30;;;;;;;17.20;8.60;;;8.80;99.90;;;;;;5077801;28;20199;-61
2022/12/21 11:07:21;;;;;;;20.47;9.03;;;8.90;99.90;;;;;;5078535;28;20231;-62
2022/12/21 11:10:27;;;;;;;18.77;9.30;;;8.80;99.90;;;;;;5059491;28;20232;-62
2022/12/21 11:13:15;;;;;;;18.93;9.37;;;8.90;99.90;;;;;;5071689;28;20214;-63
2022/12/21 11:16:04;;;;;;;20.60;11.13;;;8.90;99.90;;;;;;5076230;28;20226;-62
2022/12/21 11:18:39;;;;;;;19.53;10.03;;;8.90;99.90;;;;;;5077781;28;20252;-62
2022/12/21 11:21:37;;;;;;;15.77;9.80;;;8.90;99.90;;;;;;5074768;28;20303;-62
2022/12/21 11:24:22;;;;;;;22.40;10.97;;;8.90;99.90;;;;;;5057421;28;20226;-61
2022/12/21 11:27:01;;;;;;;18.90;10.87;;;8.90;99.90;;;;;;5074603;28;20200;-61
2022/12/21 11:29:38;;;;;;;19.53;11.00;;;8.90;99.90;;;;;;5071784;28;20289;-61
2022/12/21 11:32:09;;;;;;;22.07;10.90;;;8.80;99.90;;;;;;5073724;28;20245;-62
2022/12/21 11:34:43;;;;;;;21.27;12.33;;;8.80;99.90;;;;;;5074431;28;20196;-61
2022/12/21 11:37:37;;;;;;;22.97;12.50;;;8.80;99.90;;;;;;5071674;28;20211;-61
2022/12/21 11:40:10;;;;;;;21.23;12.10;;;8.80;99.90;;;;;;5064185;28;20718;-61
2022/12/21 11:42:59;;;;;;;22.73;12.60;;;8.80;99.90;;;;;;5069629;28;20326;-61
2022/12/21 11:45:51;;;;;;;23.60;12.60;;;8.80;99.90;;;;;;5074468;28;20275;-61
2022/12/21 11:48:44;;;;;;;19.57;11.50;;;8.80;99.90;;;;;;5075037;28;20228;-61
2022/12/21 11:51:50;;;;;;;19.97;11.53;;;8.80;99.90;;;;;;5063353;28;20294;-61
2022/12/21 11:54:40;;;;;;;20.07;12.30;;;8.70;99.90;;;;;;5075874;28;20628;-61
2022/12/21 11:57:32;;;;;;;20.80;13.20;;;8.80;99.90;;;;;;5074983;28;20200;-60
2022/12/21 12:00:08;;;;;;;21.57;12.23;;;8.90;99.90;;;;;;5079850;28;20239;-62
2022/12/21 12:03:12;;;;;;;20.47;11.50;;;8.80;99.90;;;;;;5062814;28;20660;-62
2022/12/21 12:05:54;;;;;;;22.47;11.83;;;8.90;99.90;;;;;;5075802;28;20225;-61
2022/12/21 12:08:30;;;;;;;19.97;11.13;;;8.80;99.90;;;;;;5076058;28;20203;-61
2022/12/21 12:11:14;;;;;;;17.63;10.67;;;8.90;99.90;;;;;;5075399;28;20226;-62
2022/12/21 12:13:50;;;;;;;18.03;10.97;;;8.90;99.90;;;;;;5074179;28;20658;-60
2022/12/21 12:16:26;;;;;;;21.07;11.10;;;8.80;99.90;;;;;;5078003;28;20238;-61
2022/12/21 12:19:33;;;;;;;17.23;11.60;;;8.90;99.90;;;;;;5074498;28;20239;-61
2022/12/21 12:22:12;;;;;;;20.57;11.17;;;8.90;99.90;;;;;;5075437;28;20292;-61
2022/12/21 12:25:26;;;;;;;19.53;12.23;;;8.90;99.90;;;;;;5077454;28;20534;-61
2022/12/21 12:28:28;;;;;;;21.10;11.10;;;8.90;99.90;;;;;;4976577;28;20748;-61
2022/12/21 12:31:19;;;;;;;21.60;12.07;;;8.90;99.90;;;;;;4975851;28;20394;-61
2022/12/21 12:33:45;;;;;;;20.70;11.13;;;8.90;99.90;;;;;;5066984;28;20212;-62
2022/12/21 12:36:43;;;;;;;18.93;11.63;;;8.90;99.90;;;;;;5053993;28;20621;-63
2022/12/21 12:39:34;;;;;;;23.00;10.43;;;8.90;99.90;;;;;;5072524;28;20218;-61
2022/12/21 12:42:21;;;;;;;16.93;10.63;;;8.90;99.90;;;;;;5072585;28;20309;-62
2022/12/21 12:45:22;;;;;;;16.87;9.77;;;9.00;99.90;;;;;;5057782;28;20193;-62
2022/12/21 12:48:15;;;;;;;19.93;10.10;;;9.10;99.90;;;;;;5076238;28;20663;-61
2022/12/21 12:51:22;;;;;;;18.10;10.57;;;9.00;99.90;;;;;;5078351;28;20305;-67
2022/12/21 12:53:57;;;;;;;15.73;9.23;;;9.00;99.90;;;;;;5000342;28;20668;-68
2022/12/21 12:56:49;;;;;;;16.87;9.27;;;9.10;99.90;;;;;;4999504;28;20292;-68
2022/12/21 12:59:28;;;;;;;17.70;8.83;;;9.10;99.90;;;;;;4999624;28;20270;-68
2022/12/21 13:02:13;;;;;;;15.43;8.83;;;9.10;99.90;;;;;;4987382;28;20304;-69
2022/12/21 13:04:40;;;;;;;17.23;9.10;;;9.10;99.90;;;;;;5000922;28;20225;-68
2022/12/21 13:07:09;;;;;;;17.20;9.53;;;9.20;99.90;;;;;;5000476;28;20212;-69
2022/12/21 13:10:09;;;;;;;16.73;8.83;;;9.20;99.90;;;;;;5002597;28;20237;-69
2022/12/21 13:12:45;;;;;;;14.20;8.17;;;9.20;99.90;;;;;;4998138;28;20251;-68
2022/12/21 13:15:25;;;;;;;17.70;8.27;;;9.10;99.90;;;;;;5001736;28;20250;-69
2022/12/21 13:18:12;;;;;;;19.53;8.83;;;9.20;99.90;;;;;;5000747;28;20215;-68
2022/12/21 13:20:42;;;;;;;14.83;7.90;;;9.20;99.90;;;;;;4996474;28;20239;-69
2022/12/21 13:23:34;;;;;;;15.57;9.20;;;9.20;99.90;;;;;;4999251;28;20736;-68
2022/12/21 13:26:15;;;;;;;13.17;8.07;;;9.20;99.90;;;;;;4989897;28;20300;-68